sensor_id;sensor_type;location;lat;lon;timestamp;temperature;humidity
21019;DHT22;10667;51.056;3.732;2023-11-18T00:01:54;9.20;99.90
21019;DHT22;10667;51.056;3.732;2023-11-18T00:04:19;9.20;99.90
21019;DHT22;10667;51.056;3.732;2023-11-18T00:06:45;9.10;99.90
21019;DHT22;10667;51.056;3.732;2023-11-18T00:09:12;9.20;99.90
21019;DHT22;10667;51.056;3.732;2023-11-18T00:11:43;9.30;99.90
21019;DHT22;10667;51.056;3.732;2023-11-18T00:14:10;9.30;99.90
21019;DHT22;10667;51.056;3.732;2023-11-18T00:16:38;9.20;99.90
21019;DHT22;10667;51.056;3.732;2023-11-18T00:19:04;9.30;99.90
21019;DHT22;10667;51.056;3.732;2023-11-18T00:21:35;9.30;99.90
21019;DHT22;10667;51.056;3.732;2023-11-18T00:24:01;9.30;99.90
21019;DHT22;10667;51.056;3.732;2023-11-18T00:26:27;9.20;99.90
21019;DHT22;10667;51.056;3.732;2023-11-18T00:28:53;9.20;99.90
21019;DHT22;10667;51.056;3.732;2023-11-18T00:31:18;9.20;99.90
21019;DHT22;10667;51.056;3.732;2023-11-18T00:33:44;9.20;99.90
21019;DHT22;10667;51.056;3.732;2023-11-18T00:36:10;9.20;99.90
21019;DHT22;10667;51.056;3.732;2023-11-18T00:38:36;9.20;99.90
21019;DHT22;10667;51.056;3.732;2023-11-18T00:41:01;9.20;99.90
21019;DHT22;10667;51.056;3.732;2023-11-18T00:43:27;9.20;99.90
21019;DHT22;10667;51.056;3.732;2023-11-18T00:45:53;9.30;99.90
21019;DHT22;10667;51.056;3.732;2023-11-18T00:48:18;9.20;99.90
21019;DHT22;10667;51.056;3.732;2023-11-18T00:50:44;9.20;99.90
21019;DHT22;10667;51.056;3.732;2023-11-18T00:53:09;9.20;99.90
21019;DHT22;10667;51.056;3.732;2023-11-18T00:55:35;9.20;99.90
21019;DHT22;10667;51.056;3.732;2023-11-18T00:58:01;9.20;99.90
21019;DHT22;10667;51.056;3.732;2023-11-18T01:00:27;9.20;99.90
21019;DHT22;10667;51.056;3.732;2023-11-18T01:02:53;9.20;99.90
21019;DHT22;10667;51.056;3.732;2023-11-18T01:05:20;9.20;99.90
21019;DHT22;10667;51.056;3.732;2023-11-18T01:07:46;9.20;99.90
21019;DHT22;10667;51.056;3.732;2023-11-18T01:10:12;9.20;99.90
21019;DHT22;10667;51.056;3.732;2023-11-18T01:12:39;9.20;99.90
21019;DHT22;10667;51.056;3.732;2023-11-18T01:15:05;9.20;99.90
21019;DHT22;10667;51.056;3.732;2023-11-18T01:17:32;9.20;99.90
21019;DHT22;10667;51.056;3.732;2023-11-18T01:19:58;9.20;99.90
21019;DHT22;10667;51.056;3.732;2023-11-18T01:22:26;9.20;99.90
21019;DHT22;10667;51.056;3.732;2023-11-18T01:24:52;9.20;99.90
21019;DHT22;10667;51.056;3.732;2023-11-18T01:27:17;9.20;99.90
21019;DHT22;10667;51.056;3.732;2023-11-18T01:29:45;9.20;99.90
21019;DHT22;10667;51.056;3.732;2023-11-18T01:32:12;9.20;99.90
21019;DHT22;10667;51.056;3.732;2023-11-18T01:34:39;9.20;99.90
21019;DHT22;10667;51.056;3.732;2023-11-18T01:37:06;9.30;99.90
21019;DHT22;10667;51.056;3.732;2023-11-18T01:39:36;9.20;99.90
21019;DHT22;10667;51.056;3.732;2023-11-18T01:42:02;9.20;99.90
21019;DHT22;10667;51.056;3.732;2023-11-18T01:44:28;9.20;99.90
21019;DHT22;10667;51.056;3.732;2023-11-18T01:46:56;9.30;99.90
21019;DHT22;10667;51.056;3.732;2023-11-18T01:49:22;9.30;99.90
21019;DHT22;10667;51.056;3.732;2023-11-18T01:51:50;9.30;99.90
21019;DHT22;10667;51.056;3.732;2023-11-18T01:54:17;9.30;99.90
21019;DHT22;10667;51.056;3.732;2023-11-18T01:56:46;9.30;99.90
21019;DHT22;10667;51.056;3.732;2023-11-18T01:59:13;9.40;99.90
21019;DHT22;10667;51.056;3.732;2023-11-18T02:01:51;9.40;99.90
21019;DHT22;10667;51.056;3.732;2023-11-18T02:04:19;9.40;99.90
21019;DHT22;10667;51.056;3.732;2023-11-18T02:06:46;9.40;99.90
21019;DHT22;10667;51.056;3.732;2023-11-18T02:09:17;9.40;99.90
21019;DHT22;10667;51.056;3.732;2023-11-18T02:11:51;9.40;99.90
21019;DHT22;10667;51.056;3.732;2023-11-18T02:14:20;9.40;99.90
21019;DHT22;10667;51.056;3.732;2023-11-18T02:16:49;9.40;99.90
21019;DHT22;10667;51.056;3.732;2023-11-18T02:19:25;9.40;99.90
21019;DHT22;10667;51.056;3.732;2023-11-18T02:21:55;9.40;99.90
21019;DHT22;10667;51.056;3.732;2023-11-18T02:24:30;9.40;99.90
21019;DHT22;10667;51.056;3.732;2023-11-18T02:27:00;9.40;99.90
21019;DHT22;10667;51.056;3.732;2023-11-18T02:29:28;9.40;99.90
21019;DHT22;10667;51.056;3.732;2023-11-18T02:31:59;9.30;99.90
21019;DHT22;10667;51.056;3.732;2023-11-18T02:34:30;9.30;99.90
21019;DHT22;10667;51.056;3.732;2023-11-18T02:36:58;9.40;99.90
21019;DHT22;10667;51.056;3.732;2023-11-18T02:39:37;9.40;99.90
21019;DHT22;10667;51.056;3.732;2023-11-18T02:42:05;9.40;99.90
21019;DHT22;10667;51.056;3.732;2023-11-18T02:44:36;9.40;99.90
21019;DHT22;10667;51.056;3.732;2023-11-18T02:47:03;9.40;99.90
21019;DHT22;10667;51.056;3.732;2023-11-18T02:49:34;9.40;99.90
21019;DHT22;10667;51.056;3.732;2023-11-18T02:52:00;9.30;99.90
21019;DHT22;10667;51.056;3.732;2023-11-18T02:54:26;9.40;99.90
21019;DHT22;10667;51.056;3.732;2023-11-18T02:56:51;9.40;99.90
21019;DHT22;10667;51.056;3.732;2023-11-18T02:59:17;9.40;99.90
21019;DHT22;10667;51.056;3.732;2023-11-18T03:01:43;9.40;99.90
21019;DHT22;10667;51.056;3.732;2023-11-18T03:04:10;9.40;99.90
21019;DHT22;10667;51.056;3.732;2023-11-18T03:06:35;9.30;99.90
21019;DHT22;10667;51.056;3.732;2023-11-18T03:09:02;9.30;99.90
21019;DHT22;10667;51.056;3.732;2023-11-18T03:11:28;9.40;99.90
21019;DHT22;10667;51.056;3.732;2023-11-18T03:13:56;9.40;99.90
21019;DHT22;10667;51.056;3.732;2023-11-18T03:16:22;9.40;99.90
21019;DHT22;10667;51.056;3.732;2023-11-18T03:18:50;9.40;99.90
21019;DHT22;10667;51.056;3.732;2023-11-18T03:21:16;9.40;99.90
21019;DHT22;10667;51.056;3.732;2023-11-18T03:23:42;9.40;99.90
21019;DHT22;10667;51.056;3.732;2023-11-18T03:26:08;9.40;99.90
21019;DHT22;10667;51.056;3.732;2023-11-18T03:28:36;9.40;99.90
21019;DHT22;10667;51.056;3.732;2023-11-18T03:31:03;9.40;99.90
21019;DHT22;10667;51.056;3.732;2023-11-18T03:33:29;9.40;99.90
21019;DHT22;10667;51.056;3.732;2023-11-18T03:35:55;9.30;99.90
21019;DHT22;10667;51.056;3.732;2023-11-18T03:38:21;9.40;99.90
21019;DHT22;10667;51.056;3.732;2023-11-18T03:40:47;9.40;99.90
21019;DHT22;10667;51.056;3.732;2023-11-18T03:43:13;9.50;99.90
21019;DHT22;10667;51.056;3.732;2023-11-18T03:45:40;9.50;99.90
21019;DHT22;10667;51.056;3.732;2023-11-18T03:48:06;9.50;99.90
21019;DHT22;10667;51.056;3.732;2023-11-18T03:50:34;9.50;99.90
21019;DHT22;10667;51.056;3.732;2023-11-18T03:53:00;9.50;99.90
21019;DHT22;10667;51.056;3.732;2023-11-18T03:55:27;9.50;99.90
21019;DHT22;10667;51.056;3.732;2023-11-18T03:57:52;9.50;99.90
21019;DHT22;10667;51.056;3.732;2023-11-18T04:00:19;9.50;99.90
21019;DHT22;10667;51.056;3.732;2023-11-18T04:02:48;9.50;99.90
21019;DHT22;10667;51.056;3.732;2023-11-18T04:05:14;9.60;99.90
21019;DHT22;10667;51.056;3.732;2023-11-18T04:07:40;9.50;99.90
21019;DHT22;10667;51.056;3.732;2023-11-18T04:10:08;9.40;99.90
21019;DHT22;10667;51.056;3.732;2023-11-18T04:12:36;9.50;99.90
21019;DHT22;10667;51.056;3.732;2023-11-18T04:15:01;9.40;99.90
21019;DHT22;10667;51.056;3.732;2023-11-18T04:17:30;9.50;99.90
21019;DHT22;10667;51.056;3.732;2023-11-18T04:19:56;9.50;99.90
21019;DHT22;10667;51.056;3.732;2023-11-18T04:22:22;9.50;99.90
21019;DHT22;10667;51.056;3.732;2023-11-18T04:24:48;9.40;99.90
21019;DHT22;10667;51.056;3.732;2023-11-18T04:27:13;9.50;99.90
21019;DHT22;10667;51.056;3.732;2023-11-18T04:29:39;9.50;99.90
21019;DHT22;10667;51.056;3.732;2023-11-18T04:32:06;9.60;99.90
21019;DHT22;10667;51.056;3.732;2023-11-18T04:34:38;9.50;99.90
21019;DHT22;10667;51.056;3.732;2023-11-18T04:37:04;9.50;99.90
21019;DHT22;10667;51.056;3.732;2023-11-18T04:39:32;9.50;99.90
21019;DHT22;10667;51.056;3.732;2023-11-18T04:41:58;9.40;99.90
21019;DHT22;10667;51.056;3.732;2023-11-18T04:44:23;9.50;99.90
21019;DHT22;10667;51.056;3.732;2023-11-18T04:46:49;9.60;99.90
21019;DHT22;10667;51.056;3.732;2023-11-18T04:49:15;9.50;99.90
21019;DHT22;10667;51.056;3.732;2023-11-18T04:51:41;9.50;99.90
21019;DHT22;10667;51.056;3.732;2023-11-18T04:54:07;9.50;99.90
21019;DHT22;10667;51.056;3.732;2023-11-18T04:56:36;9.50;99.90
21019;DHT22;10667;51.056;3.732;2023-11-18T04:59:03;9.50;99.90
21019;DHT22;10667;51.056;3.732;2023-11-18T05:01:31;9.60;99.90
21019;DHT22;10667;51.056;3.732;2023-11-18T05:03:57;9.50;99.90
21019;DHT22;10667;51.056;3.732;2023-11-18T05:06:23;9.60;99.90
21019;DHT22;10667;51.056;3.732;2023-11-18T05:08:48;9.50;99.90
21019;DHT22;10667;51.056;3.732;2023-11-18T05:11:15;9.50;99.90
21019;DHT22;10667;51.056;3.732;2023-11-18T05:13:41;9.50;99.90
21019;DHT22;10667;51.056;3.732;2023-11-18T05:16:07;9.50;99.90
21019;DHT22;10667;51.056;3.732;2023-11-18T05:18:33;9.60;99.90
21019;DHT22;10667;51.056;3.732;2023-11-18T05:21:01;9.50;99.90
21019;DHT22;10667;51.056;3.732;2023-11-18T05:23:28;9.50;99.90
21019;DHT22;10667;51.056;3.732;2023-11-18T05:26:01;9.50;99.90
21019;DHT22;10667;51.056;3.732;2023-11-18T05:28:30;9.50;99.90
21019;DHT22;10667;51.056;3.732;2023-11-18T05:30:56;9.50;99.90
21019;DHT22;10667;51.056;3.732;2023-11-18T05:33:23;9.50;99.90
21019;DHT22;10667;51.056;3.732;2023-11-18T05:35:49;9.60;99.90
21019;DHT22;10667;51.056;3.732;2023-11-18T05:38:18;9.50;99.90
21019;DHT22;10667;51.056;3.732;2023-11-18T05:40:47;9.50;99.90
21019;DHT22;10667;51.056;3.732;2023-11-18T05:43:27;9.50;99.90
21019;DHT22;10667;51.056;3.732;2023-11-18T05:46:05;9.60;99.90
21019;DHT22;10667;51.056;3.732;2023-11-18T05:48:48;9.50;99.90
21019;DHT22;10667;51.056;3.732;2023-11-18T05:51:22;9.50;99.90
21019;DHT22;10667;51.056;3.732;2023-11-18T05:53:48;9.50;99.90
21019;DHT22;10667;51.056;3.732;2023-11-18T05:56:15;9.60;99.90
21019;DHT22;10667;51.056;3.732;2023-11-18T05:58:42;9.60;99.90
21019;DHT22;10667;51.056;3.732;2023-11-18T06:01:08;9.50;99.90
21019;DHT22;10667;51.056;3.732;2023-11-18T06:03:36;9.60;99.90
21019;DHT22;10667;51.056;3.732;2023-11-18T06:06:10;9.60;99.90
21019;DHT22;10667;51.056;3.732;2023-11-18T06:08:36;9.60;99.90
21019;DHT22;10667;51.056;3.732;2023-11-18T06:11:12;9.60;99.90
21019;DHT22;10667;51.056;3.732;2023-11-18T06:13:40;9.60;99.90
21019;DHT22;10667;51.056;3.732;2023-11-18T06:16:22;9.60;99.90
21019;DHT22;10667;51.056;3.732;2023-11-18T06:18:49;9.60;99.90
21019;DHT22;10667;51.056;3.732;2023-11-18T06:21:17;9.60;99.90
21019;DHT22;10667;51.056;3.732;2023-11-18T06:23:44;9.60;99.90
21019;DHT22;10667;51.056;3.732;2023-11-18T06:26:14;9.70;99.90
21019;DHT22;10667;51.056;3.732;2023-11-18T06:28:44;9.70;99.90
21019;DHT22;10667;51.056;3.732;2023-11-18T06:31:10;9.80;99.90
21019;DHT22;10667;51.056;3.732;2023-11-18T06:33:44;9.80;99.90
21019;DHT22;10667;51.056;3.732;2023-11-18T06:38:39;9.80;99.90
21019;DHT22;10667;51.056;3.732;2023-11-18T06:41:09;9.70;99.90
21019;DHT22;10667;51.056;3.732;2023-11-18T06:43:37;9.70;99.90
21019;DHT22;10667;51.056;3.732;2023-11-18T06:46:32;9.70;99.90
21019;DHT22;10667;51.056;3.732;2023-11-18T06:49:00;9.60;99.90
21019;DHT22;10667;51.056;3.732;2023-11-18T06:51:30;9.70;99.90
21019;DHT22;10667;51.056;3.732;2023-11-18T06:53:57;9.80;99.90
21019;DHT22;10667;51.056;3.732;2023-11-18T06:56:24;9.70;99.90
21019;DHT22;10667;51.056;3.732;2023-11-18T06:58:50;9.70;99.90
21019;DHT22;10667;51.056;3.732;2023-11-18T07:01:16;9.80;99.90
21019;DHT22;10667;51.056;3.732;2023-11-18T07:03:42;9.90;99.90
21019;DHT22;10667;51.056;3.732;2023-11-18T07:06:09;9.80;99.90
21019;DHT22;10667;51.056;3.732;2023-11-18T07:08:36;9.70;99.90
21019;DHT22;10667;51.056;3.732;2023-11-18T07:11:05;9.80;99.90
21019;DHT22;10667;51.056;3.732;2023-11-18T07:13:32;9.90;99.90
21019;DHT22;10667;51.056;3.732;2023-11-18T07:16:00;9.90;99.90
21019;DHT22;10667;51.056;3.732;2023-11-18T07:18:29;9.80;99.90
21019;DHT22;10667;51.056;3.732;2023-11-18T07:21:00;9.80;99.90
21019;DHT22;10667;51.056;3.732;2023-11-18T07:23:26;9.80;99.90
21019;DHT22;10667;51.056;3.732;2023-11-18T07:25:52;9.70;99.90
21019;DHT22;10667;51.056;3.732;2023-11-18T07:28:19;9.80;99.90
21019;DHT22;10667;51.056;3.732;2023-11-18T07:30:45;9.80;99.90
21019;DHT22;10667;51.056;3.732;2023-11-18T07:33:19;9.80;99.90
21019;DHT22;10667;51.056;3.732;2023-11-18T07:35:47;9.80;99.90
21019;DHT22;10667;51.056;3.732;2023-11-18T07:38:16;9.80;99.90
21019;DHT22;10667;51.056;3.732;2023-11-18T07:40:43;9.80;99.90
21019;DHT22;10667;51.056;3.732;2023-11-18T07:43:17;9.80;99.90
21019;DHT22;10667;51.056;3.732;2023-11-18T07:45:43;9.90;99.90
21019;DHT22;10667;51.056;3.732;2023-11-18T07:48:09;9.80;99.90
21019;DHT22;10667;51.056;3.732;2023-11-18T07:50:38;9.80;99.90
21019;DHT22;10667;51.056;3.732;2023-11-18T07:53:04;9.80;99.90
21019;DHT22;10667;51.056;3.732;2023-11-18T07:55:32;9.70;99.90
21019;DHT22;10667;51.056;3.732;2023-11-18T07:58:03;9.70;99.90
21019;DHT22;10667;51.056;3.732;2023-11-18T08:00:29;9.80;99.90
21019;DHT22;10667;51.056;3.732;2023-11-18T08:02:58;9.70;99.90
21019;DHT22;10667;51.056;3.732;2023-11-18T08:05:26;9.80;99.90
21019;DHT22;10667;51.056;3.732;2023-11-18T08:07:53;9.80;99.90
21019;DHT22;10667;51.056;3.732;2023-11-18T08:10:19;9.90;99.90
21019;DHT22;10667;51.056;3.732;2023-11-18T08:12:45;9.90;99.90
21019;DHT22;10667;51.056;3.732;2023-11-18T08:15:12;9.90;99.90
21019;DHT22;10667;51.056;3.732;2023-11-18T08:17:39;9.90;99.90
21019;DHT22;10667;51.056;3.732;2023-11-18T08:20:05;9.90;99.90
21019;DHT22;10667;51.056;3.732;2023-11-18T08:22:40;9.90;99.90
21019;DHT22;10667;51.056;3.732;2023-11-18T08:25:06;9.90;99.90
21019;DHT22;10667;51.056;3.732;2023-11-18T08:27:34;9.90;99.90
21019;DHT22;10667;51.056;3.732;2023-11-18T08:30:01;9.80;99.90
21019;DHT22;10667;51.056;3.732;2023-11-18T08:32:31;9.90;99.90
21019;DHT22;10667;51.056;3.732;2023-11-18T08:34:57;10.00;99.90
21019;DHT22;10667;51.056;3.732;2023-11-18T08:37:22;10.00;99.90
21019;DHT22;10667;51.056;3.732;2023-11-18T08:39:48;10.00;99.90
21019;DHT22;10667;51.056;3.732;2023-11-18T08:42:14;10.00;99.90
21019;DHT22;10667;51.056;3.732;2023-11-18T08:44:40;10.00;99.90
21019;DHT22;10667;51.056;3.732;2023-11-18T08:47:06;9.90;99.90
21019;DHT22;10667;51.056;3.732;2023-11-18T08:49:34;9.90;99.90
21019;DHT22;10667;51.056;3.732;2023-11-18T08:51:59;9.90;99.90
21019;DHT22;10667;51.056;3.732;2023-11-18T08:54:26;9.90;99.90
21019;DHT22;10667;51.056;3.732;2023-11-18T08:57:03;9.90;99.90
21019;DHT22;10667;51.056;3.732;2023-11-18T08:59:29;10.00;99.90
21019;DHT22;10667;51.056;3.732;2023-11-18T09:01:56;9.90;99.90
21019;DHT22;10667;51.056;3.732;2023-11-18T09:04:25;9.90;99.90
21019;DHT22;10667;51.056;3.732;2023-11-18T09:06:51;9.90;99.90
21019;DHT22;10667;51.056;3.732;2023-11-18T09:09:22;9.90;99.90
21019;DHT22;10667;51.056;3.732;2023-11-18T09:11:56;10.00;99.90
21019;DHT22;10667;51.056;3.732;2023-11-18T09:14:25;9.90;99.90
21019;DHT22;10667;51.056;3.732;2023-11-18T09:16:51;9.90;99.90
21019;DHT22;10667;51.056;3.732;2023-11-18T09:19:17;9.90;99.90
21019;DHT22;10667;51.056;3.732;2023-11-18T09:21:46;9.90;99.90
21019;DHT22;10667;51.056;3.732;2023-11-18T09:24:12;9.90;99.90
21019;DHT22;10667;51.056;3.732;2023-11-18T09:26:39;10.00;99.90
21019;DHT22;10667;51.056;3.732;2023-11-18T09:29:05;10.00;99.90
21019;DHT22;10667;51.056;3.732;2023-11-18T09:31:35;10.00;99.90
21019;DHT22;10667;51.056;3.732;2023-11-18T09:34:03;10.00;99.90
21019;DHT22;10667;51.056;3.732;2023-11-18T09:36:32;10.00;99.90
21019;DHT22;10667;51.056;3.732;2023-11-18T09:39:00;10.00;99.90
21019;DHT22;10667;51.056;3.732;2023-11-18T09:41:28;10.00;99.90
21019;DHT22;10667;51.056;3.732;2023-11-18T09:43:54;10.00;99.90
21019;DHT22;10667;51.056;3.732;2023-11-18T09:46:29;10.00;99.90
21019;DHT22;10667;51.056;3.732;2023-11-18T09:51:44;10.00;99.90
21019;DHT22;10667;51.056;3.732;2023-11-18T09:54:30;10.00;99.90
21019;DHT22;10667;51.056;3.732;2023-11-18T09:57:07;10.10;99.90
21019;DHT22;10667;51.056;3.732;2023-11-18T10:02:12;10.10;99.90
21019;DHT22;10667;51.056;3.732;2023-11-18T10:04:38;10.10;99.90
21019;DHT22;10667;51.056;3.732;2023-11-18T10:07:06;10.10;99.90
21019;DHT22;10667;51.056;3.732;2023-11-18T10:09:36;10.00;99.90
21019;DHT22;10667;51.056;3.732;2023-11-18T10:12:04;10.00;99.90
21019;DHT22;10667;51.056;3.732;2023-11-18T10:14:36;10.00;99.90
21019;DHT22;10667;51.056;3.732;2023-11-18T10:17:08;10.00;99.90
21019;DHT22;10667;51.056;3.732;2023-11-18T10:20:03;10.00;99.90
21019;DHT22;10667;51.056;3.732;2023-11-18T10:22:38;10.00;99.90
21019;DHT22;10667;51.056;3.732;2023-11-18T10:25:04;10.00;99.90
21019;DHT22;10667;51.056;3.732;2023-11-18T10:27:32;10.00;99.90
21019;DHT22;10667;51.056;3.732;2023-11-18T10:30:06;10.10;99.90
21019;DHT22;10667;51.056;3.732;2023-11-18T10:33:00;10.00;99.90
21019;DHT22;10667;51.056;3.732;2023-11-18T10:35:32;10.00;99.90
21019;DHT22;10667;51.056;3.732;2023-11-18T10:38:02;10.10;99.90
21019;DHT22;10667;51.056;3.732;2023-11-18T10:40:34;10.10;99.90
21019;DHT22;10667;51.056;3.732;2023-11-18T10:43:03;10.10;99.90
21019;DHT22;10667;51.056;3.732;2023-11-18T10:45:35;10.10;99.90
21019;DHT22;10667;51.056;3.732;2023-11-18T10:48:08;10.20;99.90
21019;DHT22;10667;51.056;3.732;2023-11-18T10:50:34;10.20;99.90
21019;DHT22;10667;51.056;3.732;2023-11-18T10:53:00;10.20;99.90
21019;DHT22;10667;51.056;3.732;2023-11-18T10:55:39;10.20;99.90
21019;DHT22;10667;51.056;3.732;2023-11-18T10:58:06;10.20;99.90
21019;DHT22;10667;51.056;3.732;2023-11-18T11:00:52;10.20;99.90
21019;DHT22;10667;51.056;3.732;2023-11-18T11:03:21;10.30;99.90
21019;DHT22;10667;51.056;3.732;2023-11-18T11:05:51;10.30;99.90
21019;DHT22;10667;51.056;3.732;2023-11-18T11:08:19;10.30;99.90
21019;DHT22;10667;51.056;3.732;2023-11-18T11:10:46;10.30;99.90
21019;DHT22;10667;51.056;3.732;2023-11-18T11:13:17;10.40;99.90
21019;DHT22;10667;51.056;3.732;2023-11-18T11:15:44;10.30;99.90
21019;DHT22;10667;51.056;3.732;2023-11-18T11:18:12;10.30;99.90
21019;DHT22;10667;51.056;3.732;2023-11-18T11:21:06;10.40;99.90
21019;DHT22;10667;51.056;3.732;2023-11-18T11:29:40;10.30;99.90
21019;DHT22;10667;51.056;3.732;2023-11-18T11:32:32;10.30;99.90
21019;DHT22;10667;51.056;3.732;2023-11-18T11:35:07;10.20;99.90
21019;DHT22;10667;51.056;3.732;2023-11-18T11:37:43;10.20;99.90
21019;DHT22;10667;51.056;3.732;2023-11-18T11:40:09;10.30;99.90
21019;DHT22;10667;51.056;3.732;2023-11-18T11:42:38;10.20;99.90
21019;DHT22;10667;51.056;3.732;2023-11-18T11:45:06;10.20;99.90
21019;DHT22;10667;51.056;3.732;2023-11-18T11:47:48;10.30;99.90
21019;DHT22;10667;51.056;3.732;2023-11-18T11:50:27;10.30;99.90
21019;DHT22;10667;51.056;3.732;2023-11-18T11:53:05;10.40;99.90
21019;DHT22;10667;51.056;3.732;2023-11-18T11:55:51;10.40;99.90
21019;DHT22;10667;51.056;3.732;2023-11-18T11:58:28;10.50;99.90
21019;DHT22;10667;51.056;3.732;2023-11-18T12:00:54;10.50;99.90
21019;DHT22;10667;51.056;3.732;2023-11-18T12:03:21;10.50;99.90
21019;DHT22;10667;51.056;3.732;2023-11-18T12:05:54;10.50;99.90
21019;DHT22;10667;51.056;3.732;2023-11-18T12:08:22;10.60;99.90
21019;DHT22;10667;51.056;3.732;2023-11-18T12:10:54;10.60;99.90
21019;DHT22;10667;51.056;3.732;2023-11-18T12:13:21;10.60;99.90
21019;DHT22;10667;51.056;3.732;2023-11-18T12:15:52;10.60;99.90
21019;DHT22;10667;51.056;3.732;2023-11-18T12:18:22;10.70;99.90
21019;DHT22;10667;51.056;3.732;2023-11-18T12:20:49;10.70;99.90
21019;DHT22;10667;51.056;3.732;2023-11-18T12:23:22;10.70;99.90
21019;DHT22;10667;51.056;3.732;2023-11-18T12:25:50;10.60;99.90
21019;DHT22;10667;51.056;3.732;2023-11-18T12:28:27;10.60;99.90
21019;DHT22;10667;51.056;3.732;2023-11-18T12:30:54;10.70;99.90
21019;DHT22;10667;51.056;3.732;2023-11-18T12:33:24;10.60;99.90
21019;DHT22;10667;51.056;3.732;2023-11-18T12:47:05;10.70;99.90
21019;DHT22;10667;51.056;3.732;2023-11-18T12:49:44;10.70;99.90
21019;DHT22;10667;51.056;3.732;2023-11-18T12:52:11;10.70;99.90
21019;DHT22;10667;51.056;3.732;2023-11-18T12:54:40;10.70;99.90
21019;DHT22;10667;51.056;3.732;2023-11-18T12:57:12;10.70;99.90
21019;DHT22;10667;51.056;3.732;2023-11-18T12:59:40;10.70;99.90
21019;DHT22;10667;51.056;3.732;2023-11-18T13:02:10;10.70;99.90
21019;DHT22;10667;51.056;3.732;2023-11-18T13:04:45;10.80;99.90
21019;DHT22;10667;51.056;3.732;2023-11-18T13:07:16;10.70;99.90
21019;DHT22;10667;51.056;3.732;2023-11-18T13:09:48;10.80;99.90
21019;DHT22;10667;51.056;3.732;2023-11-18T13:12:15;10.80;99.90
21019;DHT22;10667;51.056;3.732;2023-11-18T13:14:42;10.80;99.90
21019;DHT22;10667;51.056;3.732;2023-11-18T13:17:15;10.80;99.90
21019;DHT22;10667;51.056;3.732;2023-11-18T13:19:43;10.90;99.90
21019;DHT22;10667;51.056;3.732;2023-11-18T13:22:13;10.90;99.90
21019;DHT22;10667;51.056;3.732;2023-11-18T13:24:41;10.80;99.90
21019;DHT22;10667;51.056;3.732;2023-11-18T13:27:15;10.80;99.90
21019;DHT22;10667;51.056;3.732;2023-11-18T13:29:48;10.80;99.90
21019;DHT22;10667;51.056;3.732;2023-11-18T13:32:19;10.80;99.90
21019;DHT22;10667;51.056;3.732;2023-11-18T13:34:51;10.80;99.90
21019;DHT22;10667;51.056;3.732;2023-11-18T13:37:17;10.80;99.90
21019;DHT22;10667;51.056;3.732;2023-11-18T13:39:44;10.80;99.90
21019;DHT22;10667;51.056;3.732;2023-11-18T13:42:38;10.80;99.90
21019;DHT22;10667;51.056;3.732;2023-11-18T13:45:14;10.90;99.90
21019;DHT22;10667;51.056;3.732;2023-11-18T13:47:51;11.00;99.90
21019;DHT22;10667;51.056;3.732;2023-11-18T13:50:20;10.90;99.90
21019;DHT22;10667;51.056;3.732;2023-11-18T13:52:46;11.00;99.90
21019;DHT22;10667;51.056;3.732;2023-11-18T13:55:15;11.00;99.90
21019;DHT22;10667;51.056;3.732;2023-11-18T13:57:56;11.00;99.90
21019;DHT22;10667;51.056;3.732;2023-11-18T14:00:27;11.00;99.90
21019;DHT22;10667;51.056;3.732;2023-11-18T14:02:57;11.00;99.90
21019;DHT22;10667;51.056;3.732;2023-11-18T14:05:23;10.90;99.90
21019;DHT22;10667;51.056;3.732;2023-11-18T14:07:58;11.00;99.90
21019;DHT22;10667;51.056;3.732;2023-11-18T14:10:34;10.90;99.90
21019;DHT22;10667;51.056;3.732;2023-11-18T14:13:05;11.10;99.90
21019;DHT22;10667;51.056;3.732;2023-11-18T14:15:42;11.10;99.90
21019;DHT22;10667;51.056;3.732;2023-11-18T14:18:11;11.10;99.90
21019;DHT22;10667;51.056;3.732;2023-11-18T14:20:38;11.10;99.90
21019;DHT22;10667;51.056;3.732;2023-11-18T14:23:04;11.20;99.90
21019;DHT22;10667;51.056;3.732;2023-11-18T14:25:30;11.30;99.90
21019;DHT22;10667;51.056;3.732;2023-11-18T14:27:57;11.20;99.90
21019;DHT22;10667;51.056;3.732;2023-11-18T14:30:23;11.40;99.90
21019;DHT22;10667;51.056;3.732;2023-11-18T14:32:50;11.30;99.90
21019;DHT22;10667;51.056;3.732;2023-11-18T14:35:16;11.40;99.90
21019;DHT22;10667;51.056;3.732;2023-11-18T14:37:45;11.40;99.90
21019;DHT22;10667;51.056;3.732;2023-11-18T14:40:14;11.40;99.90
21019;DHT22;10667;51.056;3.732;2023-11-18T14:42:46;11.40;99.90
21019;DHT22;10667;51.056;3.732;2023-11-18T14:45:15;11.40;99.90
21019;DHT22;10667;51.056;3.732;2023-11-18T14:47:42;11.40;99.90
21019;DHT22;10667;51.056;3.732;2023-11-18T14:50:14;11.40;99.90
21019;DHT22;10667;51.056;3.732;2023-11-18T14:52:49;11.40;99.90
21019;DHT22;10667;51.056;3.732;2023-11-18T14:55:27;11.40;99.90
21019;DHT22;10667;51.056;3.732;2023-11-18T14:57:52;11.40;99.90
21019;DHT22;10667;51.056;3.732;2023-11-18T15:00:18;11.40;99.90
21019;DHT22;10667;51.056;3.732;2023-11-18T15:02:51;11.50;99.90
21019;DHT22;10667;51.056;3.732;2023-11-18T15:05:17;11.60;99.90
21019;DHT22;10667;51.056;3.732;2023-11-18T15:07:47;11.60;99.90
21019;DHT22;10667;51.056;3.732;2023-11-18T15:10:18;11.60;99.90
21019;DHT22;10667;51.056;3.732;2023-11-18T15:12:48;11.60;99.90
21019;DHT22;10667;51.056;3.732;2023-11-18T15:15:14;11.70;99.90
21019;DHT22;10667;51.056;3.732;2023-11-18T15:17:45;11.70;99.90
21019;DHT22;10667;51.056;3.732;2023-11-18T15:20:12;11.70;99.90
21019;DHT22;10667;51.056;3.732;2023-11-18T15:22:38;11.70;99.90
21019;DHT22;10667;51.056;3.732;2023-11-18T15:25:04;11.70;99.90
21019;DHT22;10667;51.056;3.732;2023-11-18T15:27:36;11.70;99.90
21019;DHT22;10667;51.056;3.732;2023-11-18T15:30:02;11.80;99.90
21019;DHT22;10667;51.056;3.732;2023-11-18T15:32:27;11.80;99.90
21019;DHT22;10667;51.056;3.732;2023-11-18T15:34:53;11.80;99.90
21019;DHT22;10667;51.056;3.732;2023-11-18T15:37:19;11.90;99.90
21019;DHT22;10667;51.056;3.732;2023-11-18T15:39:44;11.90;99.90
21019;DHT22;10667;51.056;3.732;2023-11-18T15:42:10;12.00;99.90
21019;DHT22;10667;51.056;3.732;2023-11-18T15:44:36;12.00;99.90
21019;DHT22;10667;51.056;3.732;2023-11-18T15:47:05;12.00;99.90
21019;DHT22;10667;51.056;3.732;2023-11-18T15:49:31;12.10;99.90
21019;DHT22;10667;51.056;3.732;2023-11-18T15:51:56;12.10;99.90
21019;DHT22;10667;51.056;3.732;2023-11-18T15:54:22;12.10;99.90
21019;DHT22;10667;51.056;3.732;2023-11-18T15:56:47;12.20;99.90
21019;DHT22;10667;51.056;3.732;2023-11-18T15:59:13;12.30;99.90
21019;DHT22;10667;51.056;3.732;2023-11-18T16:01:39;12.30;99.90
21019;DHT22;10667;51.056;3.732;2023-11-18T16:04:05;12.30;99.90
21019;DHT22;10667;51.056;3.732;2023-11-18T16:06:32;12.40;99.90
21019;DHT22;10667;51.056;3.732;2023-11-18T16:08:58;12.50;99.90
21019;DHT22;10667;51.056;3.732;2023-11-18T16:11:24;12.50;99.90
21019;DHT22;10667;51.056;3.732;2023-11-18T16:13:49;12.50;99.90
21019;DHT22;10667;51.056;3.732;2023-11-18T16:16:17;12.40;99.90